createdAt,value
2023-05-17T00:03:38.667Z,7.00
2023-05-17T00:06:06.798Z,6.50
2023-05-17T00:08:34.758Z,7.00
2023-05-17T00:11:02.614Z,5.50
2023-05-17T00:13:30.743Z,6.00
2023-05-17T00:15:58.620Z,5.00
2023-05-17T00:18:26.626Z,5.67
2023-05-17T00:20:54.543Z,6.00
2023-05-17T00:23:22.408Z,6.00
2023-05-17T00:25:51.366Z,8.00
2023-05-17T00:28:19.240Z,6.00
2023-05-17T00:30:47.170Z,7.00
2023-05-17T00:33:15.124Z,7.50
2023-05-17T00:35:43.100Z,7.00
2023-05-17T00:38:11.099Z,6.50
2023-05-17T00:40:38.974Z,6.00
2023-05-17T00:43:06.893Z,6.00
2023-05-17T00:45:35.333Z,5.00
2023-05-17T00:48:03.837Z,7.00
2023-05-17T00:50:32.213Z,6.00
2023-05-17T00:53:00.561Z,6.00
2023-05-17T00:55:29.182Z,7.50
2023-05-17T00:57:57.869Z,7.00
2023-05-17T01:00:26.053Z,7.00
2023-05-17T01:02:54.122Z,5.00
2023-05-17T01:05:22.168Z,8.00
2023-05-17T01:07:50.486Z,8.00
2023-05-17T01:10:18.526Z,7.50
2023-05-17T01:13:04.096Z,7.00
2023-05-17T01:15:34.926Z,5.00
2023-05-17T01:18:22.285Z,6.00
2023-05-17T01:20:54.656Z,7.50
2023-05-17T01:24:00.210Z,7.00
2023-05-17T01:29:09.970Z,8.00
2023-05-17T01:31:39.405Z,6.00
2023-05-17T01:34:10.912Z,9.00
2023-05-17T01:36:38.942Z,8.00
2023-05-17T01:39:07.015Z,8.00
2023-05-17T01:41:42.734Z,6.50
2023-05-17T01:44:40.654Z,7.00
2023-05-17T01:47:24.533Z,7.00
2023-05-17T01:49:55.794Z,6.00
2023-05-17T01:52:32.232Z,9.00
2023-05-17T01:55:19.829Z,9.00
2023-05-17T01:57:52.502Z,5.00
2023-05-17T02:00:24.792Z,8.00
2023-05-17T02:02:52.801Z,6.00
2023-05-17T02:05:21.683Z,6.00
2023-05-17T02:07:49.640Z,8.00
2023-05-17T02:10:18.803Z,6.00
2023-05-17T02:12:46.775Z,4.00
2023-05-17T02:15:16.685Z,5.50
2023-05-17T02:17:44.835Z,6.00
2023-05-17T02:20:13.188Z,6.00
2023-05-17T02:22:41.122Z,5.00
2023-05-17T02:25:09.454Z,7.00
2023-05-17T02:27:37.458Z,8.00
2023-05-17T02:30:06.816Z,9.00
2023-05-17T02:32:34.935Z,7.00
2023-05-17T02:35:03.081Z,8.00
2023-05-17T02:37:31.072Z,7.00
2023-05-17T02:39:58.995Z,7.00
2023-05-17T02:42:27.473Z,8.00
2023-05-17T02:44:58.130Z,6.00
2023-05-17T02:47:26.373Z,6.00
2023-05-17T02:49:54.487Z,7.00
2023-05-17T02:52:22.499Z,6.00
2023-05-17T02:57:19.911Z,5.50
2023-05-17T02:59:47.992Z,8.00
2023-05-17T03:02:16.060Z,6.00
2023-05-17T03:04:44.447Z,7.00
2023-05-17T03:07:12.732Z,7.00
2023-05-17T03:09:42.253Z,7.00
2023-05-17T03:12:10.500Z,5.00
2023-05-17T03:14:38.621Z,5.00
2023-05-17T03:17:06.620Z,9.00
2023-05-17T03:19:35.937Z,4.00
2023-05-17T03:22:04.580Z,3.00
2023-05-17T03:24:34.172Z,9.00
2023-05-17T03:29:30.325Z,4.00
2023-05-17T03:31:58.648Z,5.00
2023-05-17T03:34:26.696Z,7.00
2023-05-17T03:36:54.655Z,6.00
2023-05-17T03:44:19.548Z,4.00
2023-05-17T03:46:47.551Z,5.00
2023-05-17T03:49:15.856Z,5.00
2023-05-17T03:51:43.945Z,6.50
2023-05-17T03:54:11.967Z,6.50
2023-05-17T03:56:39.879Z,7.00
2023-05-17T03:59:07.806Z,7.00
2023-05-17T04:04:04.653Z,7.00
2023-05-17T04:06:33.028Z,6.00
2023-05-17T04:11:29.517Z,5.50
2023-05-17T04:16:25.588Z,6.00
2023-05-17T04:18:53.805Z,7.00
2023-05-17T04:21:22.506Z,5.00
2023-05-17T04:23:51.608Z,9.00
2023-05-17T04:26:19.578Z,5.00
2023-05-17T04:28:47.531Z,6.00
2023-05-17T04:31:16.915Z,6.00
2023-05-17T04:33:45.144Z,7.00
2023-05-17T04:36:13.134Z,6.00
2023-05-17T04:38:41.332Z,6.00
2023-05-17T04:41:12.133Z,7.00
2023-05-17T04:43:40.590Z,5.00
2023-05-17T04:46:12.223Z,7.00
2023-05-17T04:48:40.349Z,5.00
2023-05-17T04:51:08.388Z,7.00
2023-05-17T04:53:36.459Z,6.00
2023-05-17T04:56:08.879Z,7.50
2023-05-17T04:58:36.828Z,4.00
2023-05-17T05:01:05.779Z,4.00
2023-05-17T05:03:34.306Z,5.00
2023-05-17T05:06:02.488Z,6.00
2023-05-17T05:08:33.855Z,5.00
2023-05-17T05:11:01.918Z,4.00
2023-05-17T05:15:58.431Z,4.00
2023-05-17T05:18:40.914Z,4.00
2023-05-17T05:21:09.190Z,5.00
2023-05-17T05:23:37.280Z,4.00
2023-05-17T05:26:05.498Z,4.00
2023-05-17T05:28:33.645Z,4.00
2023-05-17T05:31:01.626Z,3.50
2023-05-17T05:33:34.939Z,2.50
2023-05-17T05:36:03.257Z,5.00
2023-05-17T05:38:31.730Z,3.50
2023-05-17T05:41:00.569Z,3.50
2023-05-17T05:43:28.452Z,5.00
2023-05-17T05:45:56.439Z,4.00
2023-05-17T05:48:24.743Z,4.00
2023-05-17T05:50:54.239Z,5.00
2023-05-17T05:53:22.966Z,4.00
2023-05-17T05:55:56.114Z,2.00
2023-05-17T05:58:24.114Z,4.00
2023-05-17T06:00:52.320Z,4.00
2023-05-17T06:08:16.072Z,3.00
2023-05-17T06:10:44.023Z,5.50
2023-05-17T06:13:12.418Z,5.00
2023-05-17T06:15:41.173Z,4.50
2023-05-17T06:18:09.158Z,4.00
2023-05-17T06:20:37.246Z,3.00
2023-05-17T06:23:05.866Z,6.00
2023-05-17T06:25:33.876Z,5.00
2023-05-17T06:28:03.179Z,5.00
2023-05-17T06:30:31.690Z,5.50
2023-05-17T06:33:00.206Z,5.00
2023-05-17T06:35:30.178Z,6.00
2023-05-17T06:38:01.064Z,7.00
2023-05-17T06:40:29.393Z,5.00
2023-05-17T06:42:57.358Z,5.00
2023-05-17T06:45:27.282Z,6.00
2023-05-17T06:47:55.314Z,6.50
2023-05-17T06:50:23.466Z,6.00
2023-05-17T06:52:51.363Z,8.00
2023-05-17T06:55:19.574Z,8.00
2023-05-17T06:57:47.496Z,7.00
2023-05-17T07:00:15.964Z,8.00
2023-05-17T07:02:44.049Z,9.50
2023-05-17T07:05:12.874Z,11.00
2023-05-17T07:07:41.009Z,9.00
2023-05-17T07:10:09.012Z,13.00
2023-05-17T07:12:37.188Z,9.00
2023-05-17T07:15:05.535Z,10.00
2023-05-17T07:20:01.479Z,9.50
2023-05-17T07:22:29.660Z,11.00
2023-05-17T07:24:57.698Z,8.00
2023-05-17T07:27:25.969Z,10.00
2023-05-17T07:29:54.722Z,10.00
2023-05-17T07:32:22.642Z,7.00
2023-05-17T07:34:50.609Z,8.00
2023-05-17T07:37:20.526Z,11.00
2023-05-17T07:39:48.427Z,8.00
2023-05-17T07:42:16.345Z,8.00
2023-05-17T07:47:12.226Z,10.00
2023-05-17T07:49:40.104Z,10.00
2023-05-17T07:52:08.704Z,11.00
2023-05-17T07:54:36.848Z,13.00
2023-05-17T07:57:05.037Z,13.00
2023-05-17T07:59:33.614Z,14.00
2023-05-17T08:02:01.525Z,10.50
2023-05-17T08:04:29.502Z,13.50
2023-05-17T08:06:57.856Z,13.00
2023-05-17T08:09:25.809Z,15.00
2023-05-17T08:11:53.814Z,44.00
2023-05-17T08:14:25.492Z,36.00
2023-05-17T08:19:21.477Z,17.50
2023-05-17T08:21:49.747Z,14.50
2023-05-17T08:24:19.353Z,16.00
2023-05-17T08:26:47.257Z,15.00
2023-05-17T08:29:15.293Z,17.00
2023-05-17T08:31:43.280Z,29.00
2023-05-17T08:34:11.539Z,32.00
2023-05-17T08:36:39.636Z,25.00
2023-05-17T08:39:08.690Z,23.00
2023-05-17T08:41:36.702Z,17.00
2023-05-17T08:44:06.502Z,13.50
2023-05-17T08:46:37.077Z,7.00
2023-05-17T08:49:06.927Z,7.00
2023-05-17T08:51:36.574Z,10.50
2023-05-17T08:54:06.436Z,12.50
2023-05-17T08:56:39.654Z,11.50
2023-05-17T08:59:10.436Z,9.00
2023-05-17T09:01:44.423Z,11.00
2023-05-17T09:04:12.692Z,11.00
2023-05-17T09:06:40.760Z,10.00
2023-05-17T09:09:09.268Z,10.00
2023-05-17T09:11:37.841Z,14.00
2023-05-17T09:14:07.233Z,15.00
2023-05-17T09:16:36.676Z,15.00
2023-05-17T09:19:09.712Z,17.00
2023-05-17T09:21:37.682Z,19.50
2023-05-17T09:24:08.322Z,14.00
2023-05-17T09:26:45.503Z,9.00
2023-05-17T09:29:16.000Z,12.00
2023-05-17T09:31:45.013Z,13.00
2023-05-17T09:34:13.048Z,11.50
2023-05-17T09:36:44.532Z,12.00
2023-05-17T09:39:14.747Z,11.00
2023-05-17T09:41:48.355Z,7.50
2023-05-17T09:44:16.751Z,8.50
2023-05-17T09:49:14.946Z,12.00
2023-05-17T09:51:44.982Z,10.00
2023-05-17T09:54:14.173Z,7.50
2023-05-17T09:56:42.214Z,11.50
2023-05-17T09:59:16.306Z,12.00
2023-05-17T10:01:46.070Z,9.00
2023-05-17T10:04:15.105Z,10.00
2023-05-17T10:06:49.623Z,11.00
2023-05-17T10:09:23.030Z,11.00
2023-05-17T10:11:53.213Z,10.00
2023-05-17T10:16:57.366Z,13.00
2023-05-17T10:19:26.801Z,14.00
2023-05-17T10:21:56.608Z,19.00
2023-05-17T10:24:26.982Z,17.00
2023-05-17T10:26:55.086Z,14.00
2023-05-17T10:29:23.999Z,12.00
2023-05-17T10:31:52.200Z,21.00
2023-05-17T10:34:21.058Z,26.00
2023-05-17T10:36:49.847Z,16.50
2023-05-17T10:39:18.805Z,15.00
2023-05-17T10:41:50.745Z,24.00
2023-05-17T10:44:20.239Z,18.00
2023-05-17T10:46:53.678Z,18.00
2023-05-17T10:49:29.889Z,24.00
2023-05-17T10:54:37.063Z,19.50
2023-05-17T10:57:08.826Z,12.00
2023-05-17T10:59:56.838Z,19.00
2023-05-17T11:04:54.001Z,18.00
2023-05-17T11:07:27.339Z,14.50
2023-05-17T11:12:40.526Z,18.00
2023-05-17T11:15:11.549Z,21.00
2023-05-17T11:17:53.568Z,18.00
2023-05-17T11:20:28.363Z,17.50
2023-05-17T11:23:00.814Z,20.00
2023-05-17T11:25:36.051Z,15.00
2023-05-17T11:28:09.083Z,16.00
2023-05-17T11:33:17.141Z,19.00
2023-05-17T11:38:27.344Z,20.00
2023-05-17T11:43:27.529Z,20.00
2023-05-17T11:45:58.201Z,16.00
2023-05-17T11:48:26.644Z,17.00
2023-05-17T11:50:56.502Z,17.00
2023-05-17T11:53:28.633Z,11.00
2023-05-17T11:55:58.189Z,15.00
2023-05-17T11:58:27.310Z,13.00
2023-05-17T12:00:57.864Z,12.00
2023-05-17T12:03:29.135Z,13.50
2023-05-17T12:06:15.437Z,14.00
2023-05-17T12:08:45.215Z,13.00
2023-05-17T12:11:15.791Z,13.00
2023-05-17T12:13:44.223Z,13.00
2023-05-17T12:16:17.490Z,9.00
2023-05-17T12:18:51.239Z,13.50
2023-05-17T12:21:21.420Z,18.00
2023-05-17T12:23:52.237Z,12.00
2023-05-17T12:29:01.771Z,14.00
2023-05-17T12:31:36.954Z,11.00
2023-05-17T12:34:16.639Z,12.50
2023-05-17T12:36:45.718Z,8.00
2023-05-17T12:39:15.708Z,9.00
2023-05-17T12:41:44.271Z,7.00
2023-05-17T12:44:15.759Z,10.00
2023-05-17T12:49:12.935Z,9.00
2023-05-17T12:51:45.960Z,7.00
2023-05-17T12:54:24.449Z,6.00
2023-05-17T12:56:52.928Z,9.00
2023-05-17T12:59:21.586Z,7.50
2023-05-17T13:01:50.475Z,10.00
2023-05-17T13:04:20.099Z,12.00
2023-05-17T13:06:50.346Z,13.50
2023-05-17T13:09:20.787Z,15.00
2023-05-17T13:11:53.405Z,16.50
2023-05-17T13:14:44.423Z,20.50
2023-05-17T13:17:40.751Z,18.50
2023-05-17T13:20:10.439Z,16.00
2023-05-17T13:22:49.486Z,25.00
2023-05-17T13:25:17.701Z,25.50
2023-05-17T13:27:48.912Z,15.50
2023-05-17T13:32:47.451Z,17.00
2023-05-17T13:35:15.856Z,15.00
2023-05-17T13:37:43.783Z,15.50
2023-05-17T13:40:13.683Z,18.00
2023-05-17T13:42:41.535Z,18.00
2023-05-17T13:45:11.768Z,17.00
2023-05-17T13:47:39.852Z,20.00
2023-05-17T13:50:09.664Z,19.50
2023-05-17T13:52:37.677Z,16.00
2023-05-17T13:57:34.187Z,16.00
2023-05-17T14:00:02.596Z,13.00
2023-05-17T14:02:33.051Z,12.50
2023-05-17T14:05:01.174Z,12.00
2023-05-17T14:07:29.318Z,15.00
2023-05-17T14:09:57.216Z,16.00
2023-05-17T14:12:25.217Z,17.00
2023-05-17T14:17:21.392Z,16.00
2023-05-17T14:19:49.342Z,13.00
2023-05-17T14:22:17.267Z,19.00
2023-05-17T14:24:45.178Z,15.50
2023-05-17T14:27:13.026Z,13.00
2023-05-17T14:29:41.038Z,16.50
2023-05-17T14:32:09.365Z,17.00
2023-05-17T14:34:37.278Z,15.00
2023-05-17T14:37:05.289Z,15.00
2023-05-17T14:39:33.475Z,14.00
2023-05-17T14:42:01.370Z,19.50
2023-05-17T14:44:30.083Z,20.00
2023-05-17T14:46:58.052Z,15.00
2023-05-17T14:49:26.055Z,14.00
2023-05-17T14:51:54.249Z,11.50
2023-05-17T14:54:22.249Z,16.00
2023-05-17T14:56:50.255Z,19.00
2023-05-17T14:59:18.163Z,26.00
2023-05-17T15:01:46.033Z,23.00
2023-05-17T15:04:14.738Z,17.50
2023-05-17T15:06:42.674Z,19.00
2023-05-17T15:09:13.317Z,20.00
2023-05-17T15:11:42.202Z,17.50
2023-05-17T15:14:10.418Z,26.00
2023-05-17T15:16:38.869Z,27.00
2023-05-17T15:24:02.751Z,21.00
2023-05-17T15:26:31.121Z,25.00
2023-05-17T15:31:28.887Z,18.00
2023-05-17T15:33:57.759Z,17.50
2023-05-17T15:36:25.681Z,15.50
2023-05-17T15:38:53.651Z,23.00
2023-05-17T15:41:29.902Z,20.00
2023-05-17T15:43:58.559Z,23.00
2023-05-17T15:46:26.736Z,17.00
2023-05-17T15:48:56.641Z,15.00
2023-05-17T15:51:24.793Z,14.50
2023-05-17T15:53:52.813Z,14.00
2023-05-17T15:56:21.167Z,17.00
2023-05-17T15:58:50.310Z,18.00
2023-05-17T16:01:18.197Z,15.00
2023-05-17T16:06:14.883Z,18.50
2023-05-17T16:08:43.090Z,15.00
2023-05-17T16:11:11.663Z,2.00
2023-05-17T16:13:39.720Z,14.00
2023-05-17T16:16:07.673Z,13.00
2023-05-17T16:18:35.980Z,13.00
2023-05-17T16:21:05.203Z,18.00
2023-05-17T16:23:33.325Z,16.00
2023-05-17T16:26:01.634Z,16.00
2023-05-17T16:28:31.862Z,15.00
2023-05-17T16:30:59.778Z,17.00
2023-05-17T16:33:27.764Z,19.00
2023-05-17T16:35:55.809Z,18.00
2023-05-17T16:38:23.930Z,18.00
2023-05-17T16:40:51.880Z,19.00
2023-05-17T16:43:19.761Z,16.50
2023-05-17T16:45:47.924Z,18.00
2023-05-17T16:48:16.207Z,17.00
2023-05-17T16:50:44.258Z,19.00
2023-05-17T16:53:12.814Z,16.50
2023-05-17T16:55:41.831Z,20.00
2023-05-17T16:58:09.769Z,18.00
2023-05-17T17:00:37.820Z,21.50
2023-05-17T17:03:09.205Z,16.00
2023-05-17T17:05:38.106Z,17.00
2023-05-17T17:08:06.307Z,18.00
2023-05-17T17:10:36.133Z,16.50
2023-05-17T17:13:04.105Z,19.00
2023-05-17T17:15:32.102Z,19.00
2023-05-17T17:20:41.962Z,16.50
2023-05-17T17:23:09.850Z,13.00
2023-05-17T17:25:37.990Z,16.00
2023-05-17T17:28:05.867Z,18.00
2023-05-17T17:33:01.908Z,11.50
2023-05-17T17:35:29.978Z,13.00
2023-05-17T17:37:58.288Z,17.00
2023-05-17T17:40:26.204Z,17.00
2023-05-17T17:42:54.231Z,17.00
2023-05-17T17:45:22.360Z,15.00
2023-05-17T17:47:50.720Z,15.00
2023-05-17T17:50:18.685Z,13.50
2023-05-17T17:52:47.047Z,14.00
2023-05-17T17:55:15.546Z,18.00
2023-05-17T17:57:43.471Z,19.00
2023-05-17T18:00:13.284Z,17.00
2023-05-17T18:02:41.256Z,17.00
2023-05-17T18:05:10.569Z,13.00
2023-05-17T18:07:38.738Z,18.00
2023-05-17T18:10:07.422Z,19.00
2023-05-17T18:12:35.500Z,15.00
2023-05-17T18:15:03.697Z,14.50
2023-05-17T18:17:31.710Z,15.50
2023-05-17T18:19:59.666Z,16.00
2023-05-17T18:22:29.605Z,16.00
2023-05-17T18:24:57.503Z,18.33
2023-05-17T18:27:25.793Z,16.50
2023-05-17T18:29:53.692Z,19.50
2023-05-17T18:32:21.637Z,22.00
2023-05-17T18:34:49.527Z,26.00
2023-05-17T18:37:17.559Z,33.00
2023-05-17T18:39:45.578Z,32.00
2023-05-17T18:42:13.609Z,35.50
2023-05-17T18:44:41.680Z,34.00
2023-05-17T18:47:09.620Z,37.00
2023-05-17T18:52:07.208Z,48.00
2023-05-17T18:54:35.138Z,46.00
2023-05-17T18:57:03.265Z,37.00
2023-05-17T18:59:31.731Z,35.00
2023-05-17T19:04:32.024Z,20.00
2023-05-17T19:07:00.280Z,20.00
2023-05-17T19:09:28.329Z,16.00
2023-05-17T19:11:56.957Z,15.00
2023-05-17T19:14:24.912Z,15.00
2023-05-17T19:16:57.002Z,14.50
2023-05-17T19:19:26.080Z,16.00
2023-05-17T19:21:54.208Z,13.00
2023-05-17T19:24:22.257Z,13.00
2023-05-17T19:26:50.766Z,16.00
2023-05-17T19:29:18.719Z,14.00
2023-05-17T19:31:46.858Z,16.00
2023-05-17T19:34:14.800Z,13.00
2023-05-17T19:36:42.764Z,12.00
2023-05-17T19:39:10.906Z,14.00
2023-05-17T19:41:38.864Z,14.50
2023-05-17T19:44:07.179Z,17.00
2023-05-17T19:49:03.770Z,13.00
2023-05-17T19:51:32.173Z,14.00
2023-05-17T19:54:00.143Z,15.00
2023-05-17T19:56:28.141Z,17.00
2023-05-17T19:58:56.201Z,18.00
2023-05-17T20:01:24.447Z,17.50
2023-05-17T20:06:21.063Z,17.00
2023-05-17T20:08:49.159Z,19.00
2023-05-17T20:11:17.088Z,15.00
2023-05-17T20:13:45.028Z,12.50
2023-05-17T20:18:45.229Z,14.00
2023-05-17T20:21:18.231Z,13.50
2023-05-17T20:23:46.964Z,16.50
2023-05-17T20:26:19.154Z,15.00
2023-05-17T20:28:47.122Z,16.50
2023-05-17T20:31:15.250Z,15.00
2023-05-17T20:33:44.433Z,15.50
2023-05-17T20:36:14.769Z,13.00
2023-05-17T20:38:42.915Z,17.00
2023-05-17T20:41:11.217Z,15.00
2023-05-17T20:43:39.268Z,18.00
2023-05-17T20:46:07.576Z,18.50
2023-05-17T20:48:36.598Z,17.50
2023-05-17T20:51:04.734Z,17.00
2023-05-17T20:53:32.622Z,20.00
2023-05-17T20:56:00.693Z,16.50
2023-05-17T20:58:29.800Z,15.00
2023-05-17T21:01:00.087Z,13.50
2023-05-17T21:03:33.388Z,14.50
2023-05-17T21:08:30.257Z,13.00
2023-05-17T21:10:58.732Z,14.00
2023-05-17T21:13:27.181Z,18.00
2023-05-17T21:15:56.020Z,15.00
2023-05-17T21:18:24.085Z,16.00
2023-05-17T21:20:53.274Z,12.00
2023-05-17T21:23:21.216Z,12.50
2023-05-17T21:28:17.191Z,14.00
2023-05-17T21:30:45.153Z,10.00
2023-05-17T21:33:13.160Z,13.00
2023-05-17T21:35:41.332Z,13.50
2023-05-17T21:38:09.839Z,16.00
2023-05-17T21:43:12.695Z,12.00
2023-05-17T21:45:41.988Z,11.00
2023-05-17T21:48:10.023Z,12.00
2023-05-17T21:50:38.149Z,10.50
2023-05-17T21:55:45.784Z,16.50
2023-05-17T21:58:21.314Z,14.00
2023-05-17T22:00:49.302Z,13.00
2023-05-17T22:03:17.352Z,14.00
2023-05-17T22:05:45.390Z,13.00
2023-05-17T22:08:13.380Z,13.00
2023-05-17T22:13:12.488Z,15.00
2023-05-17T22:15:41.778Z,12.00
2023-05-17T22:20:40.828Z,13.00
2023-05-17T22:23:08.813Z,10.00
2023-05-17T22:25:36.815Z,12.00
2023-05-17T22:30:33.243Z,11.00
2023-05-17T22:33:03.287Z,13.50
2023-05-17T22:35:31.592Z,11.00
2023-05-17T22:37:59.713Z,13.50
2023-05-17T22:40:27.726Z,11.00
2023-05-17T22:42:58.307Z,10.50
2023-05-17T22:45:30.173Z,14.00
2023-05-17T22:47:59.068Z,14.00
2023-05-17T22:50:30.682Z,13.00
2023-05-17T22:52:58.797Z,12.00
2023-05-17T22:55:27.741Z,13.50
2023-05-17T22:57:56.840Z,11.50
2023-05-17T23:00:25.625Z,11.00
2023-05-17T23:02:53.658Z,10.00
2023-05-17T23:05:22.423Z,11.00
2023-05-17T23:07:50.466Z,11.00
2023-05-17T23:10:18.426Z,13.00
2023-05-17T23:12:46.424Z,11.50
2023-05-17T23:15:16.417Z,11.50
2023-05-17T23:17:46.029Z,9.00
2023-05-17T23:20:14.036Z,9.50
2023-05-17T23:22:41.981Z,11.50
2023-05-17T23:25:10.263Z,12.00
2023-05-17T23:27:38.276Z,11.00
2023-05-17T23:30:07.509Z,12.00
2023-05-17T23:32:35.410Z,12.50
2023-05-17T23:37:34.462Z,11.00
2023-05-17T23:40:09.538Z,10.00
2023-05-17T23:42:37.956Z,11.00
2023-05-17T23:45:07.585Z,13.00
2023-05-17T23:47:35.589Z,12.00
2023-05-17T23:50:03.603Z,14.00
2023-05-17T23:52:32.891Z,14.00
2023-05-17T23:55:01.759Z,14.00
2023-05-17T23:57:29.754Z,16.50
